sensor_id;sensor_type;location;lat;lon;timestamp;temperature;humidity
18876;DHT22;9570;50.854;13.778;2022-07-06T00:01:22;16.60;99.90
18876;DHT22;9570;50.854;13.778;2022-07-06T00:03:47;16.50;99.90
18876;DHT22;9570;50.854;13.778;2022-07-06T00:06:13;16.50;99.90
18876;DHT22;9570;50.854;13.778;2022-07-06T00:08:39;16.50;99.90
18876;DHT22;9570;50.854;13.778;2022-07-06T00:11:05;16.20;99.90
18876;DHT22;9570;50.854;13.778;2022-07-06T00:13:31;16.00;99.90
18876;DHT22;9570;50.854;13.778;2022-07-06T00:15:57;16.10;99.90
18876;DHT22;9570;50.854;13.778;2022-07-06T00:18:22;16.20;99.90
18876;DHT22;9570;50.854;13.778;2022-07-06T00:20:48;16.30;99.90
18876;DHT22;9570;50.854;13.778;2022-07-06T00:23:13;16.40;99.90
18876;DHT22;9570;50.854;13.778;2022-07-06T00:25:39;16.40;99.90
18876;DHT22;9570;50.854;13.778;2022-07-06T00:28:05;16.50;99.90
18876;DHT22;9570;50.854;13.778;2022-07-06T00:30:30;16.50;99.90
18876;DHT22;9570;50.854;13.778;2022-07-06T00:32:55;16.50;99.90
18876;DHT22;9570;50.854;13.778;2022-07-06T00:35:26;16.50;99.90
18876;DHT22;9570;50.854;13.778;2022-07-06T00:37:51;16.50;99.90
18876;DHT22;9570;50.854;13.778;2022-07-06T00:40:18;16.60;99.90
18876;DHT22;9570;50.854;13.778;2022-07-06T00:42:46;16.60;99.90
18876;DHT22;9570;50.854;13.778;2022-07-06T00:45:14;16.60;99.90
18876;DHT22;9570;50.854;13.778;2022-07-06T00:47:40;16.60;99.90
18876;DHT22;9570;50.854;13.778;2022-07-06T00:50:08;16.60;99.90
18876;DHT22;9570;50.854;13.778;2022-07-06T00:52:44;16.60;99.90
18876;DHT22;9570;50.854;13.778;2022-07-06T00:55:11;16.50;99.90
18876;DHT22;9570;50.854;13.778;2022-07-06T00:57:37;16.50;99.90
18876;DHT22;9570;50.854;13.778;2022-07-06T01:00:05;16.50;99.90
18876;DHT22;9570;50.854;13.778;2022-07-06T01:02:32;16.40;99.90
18876;DHT22;9570;50.854;13.778;2022-07-06T01:04:57;16.40;99.90
18876;DHT22;9570;50.854;13.778;2022-07-06T01:07:23;16.40;99.90
18876;DHT22;9570;50.854;13.778;2022-07-06T01:09:49;16.40;99.90
18876;DHT22;9570;50.854;13.778;2022-07-06T01:12:15;16.40;99.90
18876;DHT22;9570;50.854;13.778;2022-07-06T01:14:40;16.40;99.90
18876;DHT22;9570;50.854;13.778;2022-07-06T01:17:07;16.30;99.90
18876;DHT22;9570;50.854;13.778;2022-07-06T01:19:33;16.30;99.90
18876;DHT22;9570;50.854;13.778;2022-07-06T01:21:59;16.20;99.90
18876;DHT22;9570;50.854;13.778;2022-07-06T01:24:25;16.10;99.90
18876;DHT22;9570;50.854;13.778;2022-07-06T01:26:51;16.10;99.90
18876;DHT22;9570;50.854;13.778;2022-07-06T01:29:17;16.10;99.90
18876;DHT22;9570;50.854;13.778;2022-07-06T01:31:47;16.10;99.90
18876;DHT22;9570;50.854;13.778;2022-07-06T01:34:14;16.10;99.90
18876;DHT22;9570;50.854;13.778;2022-07-06T01:36:39;16.10;99.90
18876;DHT22;9570;50.854;13.778;2022-07-06T01:39:05;16.10;99.90
18876;DHT22;9570;50.854;13.778;2022-07-06T01:41:33;16.10;99.90
18876;DHT22;9570;50.854;13.778;2022-07-06T01:43:58;16.10;99.90
18876;DHT22;9570;50.854;13.778;2022-07-06T01:46:23;16.10;99.90
18876;DHT22;9570;50.854;13.778;2022-07-06T01:48:49;16.10;99.90
18876;DHT22;9570;50.854;13.778;2022-07-06T01:51:15;16.10;99.90
18876;DHT22;9570;50.854;13.778;2022-07-06T01:53:40;16.10;99.90
18876;DHT22;9570;50.854;13.778;2022-07-06T01:56:06;16.10;99.90
18876;DHT22;9570;50.854;13.778;2022-07-06T01:58:32;16.00;99.90
18876;DHT22;9570;50.854;13.778;2022-07-06T02:00:58;16.00;99.90
18876;DHT22;9570;50.854;13.778;2022-07-06T02:03:23;16.00;99.90
18876;DHT22;9570;50.854;13.778;2022-07-06T02:05:49;16.00;99.90
18876;DHT22;9570;50.854;13.778;2022-07-06T02:08:14;16.10;99.90
18876;DHT22;9570;50.854;13.778;2022-07-06T02:10:40;16.00;99.90
18876;DHT22;9570;50.854;13.778;2022-07-06T02:13:05;16.00;99.90
18876;DHT22;9570;50.854;13.778;2022-07-06T02:15:31;16.10;99.90
18876;DHT22;9570;50.854;13.778;2022-07-06T02:17:56;16.10;99.90
18876;DHT22;9570;50.854;13.778;2022-07-06T02:20:22;16.10;99.90
18876;DHT22;9570;50.854;13.778;2022-07-06T02:22:47;16.10;99.90
18876;DHT22;9570;50.854;13.778;2022-07-06T02:25:13;16.10;99.90
18876;DHT22;9570;50.854;13.778;2022-07-06T02:27:38;16.00;99.90
18876;DHT22;9570;50.854;13.778;2022-07-06T02:30:05;16.00;99.90
18876;DHT22;9570;50.854;13.778;2022-07-06T02:32:30;16.00;99.90
18876;DHT22;9570;50.854;13.778;2022-07-06T02:34:56;16.10;99.90
18876;DHT22;9570;50.854;13.778;2022-07-06T02:37:21;16.20;99.90
18876;DHT22;9570;50.854;13.778;2022-07-06T02:39:47;16.20;99.90
18876;DHT22;9570;50.854;13.778;2022-07-06T02:42:13;16.20;99.90
18876;DHT22;9570;50.854;13.778;2022-07-06T02:44:38;16.20;99.90
18876;DHT22;9570;50.854;13.778;2022-07-06T02:47:04;16.20;99.90
18876;DHT22;9570;50.854;13.778;2022-07-06T02:49:29;16.10;99.90
18876;DHT22;9570;50.854;13.778;2022-07-06T02:51:54;16.20;99.90
18876;DHT22;9570;50.854;13.778;2022-07-06T02:54:20;16.20;99.90
18876;DHT22;9570;50.854;13.778;2022-07-06T02:56:45;16.10;99.90
18876;DHT22;9570;50.854;13.778;2022-07-06T02:59:16;16.10;99.90
18876;DHT22;9570;50.854;13.778;2022-07-06T03:01:42;16.20;99.90
18876;DHT22;9570;50.854;13.778;2022-07-06T03:04:07;16.10;99.90
18876;DHT22;9570;50.854;13.778;2022-07-06T03:06:33;16.00;99.90
18876;DHT22;9570;50.854;13.778;2022-07-06T03:08:58;15.90;99.90
18876;DHT22;9570;50.854;13.778;2022-07-06T03:11:24;15.90;99.90
18876;DHT22;9570;50.854;13.778;2022-07-06T03:13:49;15.90;99.90
18876;DHT22;9570;50.854;13.778;2022-07-06T03:16:14;15.80;99.90
18876;DHT22;9570;50.854;13.778;2022-07-06T03:18:40;15.80;99.90
18876;DHT22;9570;50.854;13.778;2022-07-06T03:21:05;15.80;99.90
18876;DHT22;9570;50.854;13.778;2022-07-06T03:23:31;15.90;99.90
18876;DHT22;9570;50.854;13.778;2022-07-06T03:25:57;15.80;99.90
18876;DHT22;9570;50.854;13.778;2022-07-06T03:28:22;15.90;99.90
18876;DHT22;9570;50.854;13.778;2022-07-06T03:30:48;15.80;99.90
18876;DHT22;9570;50.854;13.778;2022-07-06T03:33:13;15.80;99.90
18876;DHT22;9570;50.854;13.778;2022-07-06T03:35:39;15.70;99.90
18876;DHT22;9570;50.854;13.778;2022-07-06T03:38:04;15.70;99.90
18876;DHT22;9570;50.854;13.778;2022-07-06T03:40:29;15.70;99.90
18876;DHT22;9570;50.854;13.778;2022-07-06T03:42:55;15.70;99.90
18876;DHT22;9570;50.854;13.778;2022-07-06T03:45:20;15.70;99.90
18876;DHT22;9570;50.854;13.778;2022-07-06T03:47:46;15.70;99.90
18876;DHT22;9570;50.854;13.778;2022-07-06T03:50:11;15.60;99.90
18876;DHT22;9570;50.854;13.778;2022-07-06T03:52:37;15.60;99.90
18876;DHT22;9570;50.854;13.778;2022-07-06T03:55:10;15.50;99.90
18876;DHT22;9570;50.854;13.778;2022-07-06T03:57:37;15.40;99.90
18876;DHT22;9570;50.854;13.778;2022-07-06T04:00:04;15.30;99.90
18876;DHT22;9570;50.854;13.778;2022-07-06T04:02:29;15.30;99.90
18876;DHT22;9570;50.854;13.778;2022-07-06T04:04:55;15.20;99.90
18876;DHT22;9570;50.854;13.778;2022-07-06T04:07:20;15.20;99.90
18876;DHT22;9570;50.854;13.778;2022-07-06T04:09:46;15.10;99.90
18876;DHT22;9570;50.854;13.778;2022-07-06T04:12:11;15.00;99.90
18876;DHT22;9570;50.854;13.778;2022-07-06T04:14:37;15.00;99.90
18876;DHT22;9570;50.854;13.778;2022-07-06T04:17:02;15.00;99.90
18876;DHT22;9570;50.854;13.778;2022-07-06T04:19:46;15.00;99.90
18876;DHT22;9570;50.854;13.778;2022-07-06T04:22:12;14.90;99.90
18876;DHT22;9570;50.854;13.778;2022-07-06T04:24:37;14.90;99.90
18876;DHT22;9570;50.854;13.778;2022-07-06T04:27:03;15.00;99.90
18876;DHT22;9570;50.854;13.778;2022-07-06T04:29:28;15.00;99.90
18876;DHT22;9570;50.854;13.778;2022-07-06T04:31:54;15.00;99.90
18876;DHT22;9570;50.854;13.778;2022-07-06T04:34:20;15.00;99.90
18876;DHT22;9570;50.854;13.778;2022-07-06T04:36:45;14.90;99.90
18876;DHT22;9570;50.854;13.778;2022-07-06T04:39:10;14.90;99.90
18876;DHT22;9570;50.854;13.778;2022-07-06T04:41:36;14.90;99.90
18876;DHT22;9570;50.854;13.778;2022-07-06T04:44:01;14.90;99.90
18876;DHT22;9570;50.854;13.778;2022-07-06T04:46:27;14.80;99.90
18876;DHT22;9570;50.854;13.778;2022-07-06T04:48:52;14.70;99.90
18876;DHT22;9570;50.854;13.778;2022-07-06T04:51:18;14.80;99.90
18876;DHT22;9570;50.854;13.778;2022-07-06T04:53:43;14.90;99.90
18876;DHT22;9570;50.854;13.778;2022-07-06T04:56:09;14.90;99.90
18876;DHT22;9570;50.854;13.778;2022-07-06T04:58:34;14.90;99.90
18876;DHT22;9570;50.854;13.778;2022-07-06T05:01:00;15.00;99.90
18876;DHT22;9570;50.854;13.778;2022-07-06T05:03:25;14.90;99.90
18876;DHT22;9570;50.854;13.778;2022-07-06T05:05:51;15.00;99.90
18876;DHT22;9570;50.854;13.778;2022-07-06T05:08:16;15.10;99.90
18876;DHT22;9570;50.854;13.778;2022-07-06T05:10:42;15.20;99.90
18876;DHT22;9570;50.854;13.778;2022-07-06T05:13:07;15.20;99.90
18876;DHT22;9570;50.854;13.778;2022-07-06T05:15:33;15.30;99.90
18876;DHT22;9570;50.854;13.778;2022-07-06T05:17:58;15.30;99.90
18876;DHT22;9570;50.854;13.778;2022-07-06T05:20:24;15.30;99.90
18876;DHT22;9570;50.854;13.778;2022-07-06T05:22:49;15.40;99.90
18876;DHT22;9570;50.854;13.778;2022-07-06T05:25:15;15.40;99.90
18876;DHT22;9570;50.854;13.778;2022-07-06T05:27:40;15.50;99.90
18876;DHT22;9570;50.854;13.778;2022-07-06T05:30:06;15.60;99.90
18876;DHT22;9570;50.854;13.778;2022-07-06T05:32:32;15.70;99.90
18876;DHT22;9570;50.854;13.778;2022-07-06T05:34:57;15.80;99.90
18876;DHT22;9570;50.854;13.778;2022-07-06T05:37:23;15.90;99.90
18876;DHT22;9570;50.854;13.778;2022-07-06T05:39:48;16.00;99.90
18876;DHT22;9570;50.854;13.778;2022-07-06T05:42:15;15.90;99.90
18876;DHT22;9570;50.854;13.778;2022-07-06T05:44:41;16.00;99.90
18876;DHT22;9570;50.854;13.778;2022-07-06T05:47:06;16.10;99.90
18876;DHT22;9570;50.854;13.778;2022-07-06T05:49:52;16.10;99.90
18876;DHT22;9570;50.854;13.778;2022-07-06T05:52:36;16.20;99.90
18876;DHT22;9570;50.854;13.778;2022-07-06T05:55:02;16.50;99.90
18876;DHT22;9570;50.854;13.778;2022-07-06T05:57:28;17.10;99.90
18876;DHT22;9570;50.854;13.778;2022-07-06T05:59:53;17.80;99.90
18876;DHT22;9570;50.854;13.778;2022-07-06T06:02:19;18.60;99.90
18876;DHT22;9570;50.854;13.778;2022-07-06T06:04:44;19.20;99.90
18876;DHT22;9570;50.854;13.778;2022-07-06T06:07:10;19.50;99.90
18876;DHT22;9570;50.854;13.778;2022-07-06T06:09:35;20.00;99.90
18876;DHT22;9570;50.854;13.778;2022-07-06T06:12:01;20.60;99.90
18876;DHT22;9570;50.854;13.778;2022-07-06T06:14:26;20.80;99.90
18876;DHT22;9570;50.854;13.778;2022-07-06T06:16:52;20.80;99.90
18876;DHT22;9570;50.854;13.778;2022-07-06T06:19:17;20.80;99.90
18876;DHT22;9570;50.854;13.778;2022-07-06T06:21:43;21.00;99.90
18876;DHT22;9570;50.854;13.778;2022-07-06T06:24:08;20.50;99.90
18876;DHT22;9570;50.854;13.778;2022-07-06T06:26:33;20.70;99.90
18876;DHT22;9570;50.854;13.778;2022-07-06T06:28:59;20.90;99.90
18876;DHT22;9570;50.854;13.778;2022-07-06T06:31:24;21.40;99.90
18876;DHT22;9570;50.854;13.778;2022-07-06T06:33:50;21.60;99.90
18876;DHT22;9570;50.854;13.778;2022-07-06T06:36:15;22.00;99.90
18876;DHT22;9570;50.854;13.778;2022-07-06T06:38:42;21.80;99.90
18876;DHT22;9570;50.854;13.778;2022-07-06T06:41:07;21.60;99.90
18876;DHT22;9570;50.854;13.778;2022-07-06T06:43:33;22.00;99.90
18876;DHT22;9570;50.854;13.778;2022-07-06T06:45:58;21.80;99.90
18876;DHT22;9570;50.854;13.778;2022-07-06T06:48:24;21.90;99.90
18876;DHT22;9570;50.854;13.778;2022-07-06T06:50:49;21.90;99.90
18876;DHT22;9570;50.854;13.778;2022-07-06T06:53:15;21.70;99.90
18876;DHT22;9570;50.854;13.778;2022-07-06T06:55:40;21.60;99.90
18876;DHT22;9570;50.854;13.778;2022-07-06T06:58:06;21.60;99.90
18876;DHT22;9570;50.854;13.778;2022-07-06T07:00:31;21.40;99.90
18876;DHT22;9570;50.854;13.778;2022-07-06T07:02:57;21.30;99.90
18876;DHT22;9570;50.854;13.778;2022-07-06T07:05:22;21.20;99.90
18876;DHT22;9570;50.854;13.778;2022-07-06T07:07:48;20.90;99.90
18876;DHT22;9570;50.854;13.778;2022-07-06T07:10:13;20.30;99.90
18876;DHT22;9570;50.854;13.778;2022-07-06T07:12:45;20.20;99.90
18876;DHT22;9570;50.854;13.778;2022-07-06T07:15:11;19.80;99.90
18876;DHT22;9570;50.854;13.778;2022-07-06T07:17:37;19.80;99.90
18876;DHT22;9570;50.854;13.778;2022-07-06T07:20:03;19.80;99.90
18876;DHT22;9570;50.854;13.778;2022-07-06T07:22:29;19.60;99.90
18876;DHT22;9570;50.854;13.778;2022-07-06T07:24:54;19.40;99.90
18876;DHT22;9570;50.854;13.778;2022-07-06T07:27:20;19.20;99.90
18876;DHT22;9570;50.854;13.778;2022-07-06T07:29:45;19.50;99.90
18876;DHT22;9570;50.854;13.778;2022-07-06T07:32:11;19.70;99.90
18876;DHT22;9570;50.854;13.778;2022-07-06T07:34:36;19.80;99.90
18876;DHT22;9570;50.854;13.778;2022-07-06T07:37:02;19.60;99.90
18876;DHT22;9570;50.854;13.778;2022-07-06T07:39:28;19.60;99.90
18876;DHT22;9570;50.854;13.778;2022-07-06T07:41:53;19.70;99.90
18876;DHT22;9570;50.854;13.778;2022-07-06T07:44:19;19.70;99.90
18876;DHT22;9570;50.854;13.778;2022-07-06T07:46:44;20.10;99.90
18876;DHT22;9570;50.854;13.778;2022-07-06T07:49:10;20.30;99.90
18876;DHT22;9570;50.854;13.778;2022-07-06T07:51:35;20.30;99.90
18876;DHT22;9570;50.854;13.778;2022-07-06T07:54:01;20.00;99.90
18876;DHT22;9570;50.854;13.778;2022-07-06T07:56:26;19.70;99.90
18876;DHT22;9570;50.854;13.778;2022-07-06T07:58:51;19.70;99.90
18876;DHT22;9570;50.854;13.778;2022-07-06T08:01:17;19.60;99.90
18876;DHT22;9570;50.854;13.778;2022-07-06T08:03:42;20.00;99.90
18876;DHT22;9570;50.854;13.778;2022-07-06T08:06:08;20.50;99.90
18876;DHT22;9570;50.854;13.778;2022-07-06T08:08:33;20.50;99.90
18876;DHT22;9570;50.854;13.778;2022-07-06T08:10:59;20.70;99.90
18876;DHT22;9570;50.854;13.778;2022-07-06T08:13:24;20.50;99.90
18876;DHT22;9570;50.854;13.778;2022-07-06T08:15:50;20.20;99.90
18876;DHT22;9570;50.854;13.778;2022-07-06T08:18:15;20.00;99.90
18876;DHT22;9570;50.854;13.778;2022-07-06T08:20:41;19.50;99.90
18876;DHT22;9570;50.854;13.778;2022-07-06T08:23:06;19.10;99.90
18876;DHT22;9570;50.854;13.778;2022-07-06T08:25:32;19.20;99.90
18876;DHT22;9570;50.854;13.778;2022-07-06T08:27:58;19.30;99.90
18876;DHT22;9570;50.854;13.778;2022-07-06T08:30:23;19.80;99.90
18876;DHT22;9570;50.854;13.778;2022-07-06T08:32:49;20.30;99.90
18876;DHT22;9570;50.854;13.778;2022-07-06T08:35:14;20.50;99.90
18876;DHT22;9570;50.854;13.778;2022-07-06T08:37:40;20.80;99.90
18876;DHT22;9570;50.854;13.778;2022-07-06T08:40:06;20.90;99.90
18876;DHT22;9570;50.854;13.778;2022-07-06T08:42:33;21.10;99.90
18876;DHT22;9570;50.854;13.778;2022-07-06T08:45:04;20.90;99.90
18876;DHT22;9570;50.854;13.778;2022-07-06T08:47:30;20.70;99.90
18876;DHT22;9570;50.854;13.778;2022-07-06T08:49:56;20.90;99.90
18876;DHT22;9570;50.854;13.778;2022-07-06T09:02:13;20.10;99.90
18876;DHT22;9570;50.854;13.778;2022-07-06T09:04:39;20.40;99.90
18876;DHT22;9570;50.854;13.778;2022-07-06T09:07:07;20.80;99.90
18876;DHT22;9570;50.854;13.778;2022-07-06T09:09:33;20.70;99.90
18876;DHT22;9570;50.854;13.778;2022-07-06T09:11:58;20.80;99.90
18876;DHT22;9570;50.854;13.778;2022-07-06T09:14:24;21.00;99.90
18876;DHT22;9570;50.854;13.778;2022-07-06T09:17:02;21.10;99.90
18876;DHT22;9570;50.854;13.778;2022-07-06T09:19:30;20.70;99.90
18876;DHT22;9570;50.854;13.778;2022-07-06T09:21:55;20.50;99.90
18876;DHT22;9570;50.854;13.778;2022-07-06T09:24:21;20.70;99.90
18876;DHT22;9570;50.854;13.778;2022-07-06T09:26:47;20.90;99.90
18876;DHT22;9570;50.854;13.778;2022-07-06T09:29:13;21.20;99.90
18876;DHT22;9570;50.854;13.778;2022-07-06T09:31:39;21.60;99.90
18876;DHT22;9570;50.854;13.778;2022-07-06T09:34:07;21.70;99.90
18876;DHT22;9570;50.854;13.778;2022-07-06T09:36:40;21.50;99.90
18876;DHT22;9570;50.854;13.778;2022-07-06T09:39:21;21.10;99.90
18876;DHT22;9570;50.854;13.778;2022-07-06T09:41:48;20.90;99.90
18876;DHT22;9570;50.854;13.778;2022-07-06T09:44:21;21.10;99.90
18876;DHT22;9570;50.854;13.778;2022-07-06T09:46:48;21.10;99.90
18876;DHT22;9570;50.854;13.778;2022-07-06T09:49:17;21.30;99.90
18876;DHT22;9570;50.854;13.778;2022-07-06T09:51:44;21.80;99.90
18876;DHT22;9570;50.854;13.778;2022-07-06T09:54:11;21.80;99.90
18876;DHT22;9570;50.854;13.778;2022-07-06T09:56:41;21.90;99.90
18876;DHT22;9570;50.854;13.778;2022-07-06T09:59:11;21.90;99.90
18876;DHT22;9570;50.854;13.778;2022-07-06T10:01:40;21.60;99.90
18876;DHT22;9570;50.854;13.778;2022-07-06T10:04:07;21.70;99.90
18876;DHT22;9570;50.854;13.778;2022-07-06T10:06:33;21.70;99.90
18876;DHT22;9570;50.854;13.778;2022-07-06T10:08:59;21.70;99.90
18876;DHT22;9570;50.854;13.778;2022-07-06T10:11:25;21.20;99.90
18876;DHT22;9570;50.854;13.778;2022-07-06T10:13:56;20.90;99.90
18876;DHT22;9570;50.854;13.778;2022-07-06T10:16:25;21.10;99.90
18876;DHT22;9570;50.854;13.778;2022-07-06T10:18:52;21.10;99.90
18876;DHT22;9570;50.854;13.778;2022-07-06T10:21:22;21.10;99.90
18876;DHT22;9570;50.854;13.778;2022-07-06T10:23:49;20.90;99.90
18876;DHT22;9570;50.854;13.778;2022-07-06T10:26:15;20.80;99.90
18876;DHT22;9570;50.854;13.778;2022-07-06T10:28:42;21.30;99.90
18876;DHT22;9570;50.854;13.778;2022-07-06T10:31:08;21.90;99.90
18876;DHT22;9570;50.854;13.778;2022-07-06T10:33:35;22.00;99.90
18876;DHT22;9570;50.854;13.778;2022-07-06T10:36:01;21.60;99.90
18876;DHT22;9570;50.854;13.778;2022-07-06T10:38:34;21.40;99.90
18876;DHT22;9570;50.854;13.778;2022-07-06T10:41:04;21.30;99.90
18876;DHT22;9570;50.854;13.778;2022-07-06T10:43:52;21.50;99.90
18876;DHT22;9570;50.854;13.778;2022-07-06T10:46:17;21.70;99.90
18876;DHT22;9570;50.854;13.778;2022-07-06T10:48:46;21.70;99.90
18876;DHT22;9570;50.854;13.778;2022-07-06T10:51:23;21.70;99.90
18876;DHT22;9570;50.854;13.778;2022-07-06T10:53:55;21.70;99.90
18876;DHT22;9570;50.854;13.778;2022-07-06T10:56:38;21.80;99.90
18876;DHT22;9570;50.854;13.778;2022-07-06T10:59:14;22.10;99.90
18876;DHT22;9570;50.854;13.778;2022-07-06T11:01:40;22.10;99.90
18876;DHT22;9570;50.854;13.778;2022-07-06T11:04:07;22.00;99.90
18876;DHT22;9570;50.854;13.778;2022-07-06T11:06:35;21.90;99.90
18876;DHT22;9570;50.854;13.778;2022-07-06T11:09:06;21.80;99.90
18876;DHT22;9570;50.854;13.778;2022-07-06T11:14:20;21.20;99.90
18876;DHT22;9570;50.854;13.778;2022-07-06T11:19:16;21.00;99.90
18876;DHT22;9570;50.854;13.778;2022-07-06T11:21:51;21.00;99.90
18876;DHT22;9570;50.854;13.778;2022-07-06T11:24:32;20.90;99.90
18876;DHT22;9570;50.854;13.778;2022-07-06T11:27:00;20.90;99.90
18876;DHT22;9570;50.854;13.778;2022-07-06T11:29:27;21.00;99.90
18876;DHT22;9570;50.854;13.778;2022-07-06T11:31:55;21.20;99.90
18876;DHT22;9570;50.854;13.778;2022-07-06T11:34:29;21.50;99.90
18876;DHT22;9570;50.854;13.778;2022-07-06T11:37:00;21.60;99.90
18876;DHT22;9570;50.854;13.778;2022-07-06T11:39:30;21.60;99.90
18876;DHT22;9570;50.854;13.778;2022-07-06T11:41:57;21.40;99.90
18876;DHT22;9570;50.854;13.778;2022-07-06T11:44:22;21.30;99.90
18876;DHT22;9570;50.854;13.778;2022-07-06T11:46:48;21.40;99.90
18876;DHT22;9570;50.854;13.778;2022-07-06T11:49:14;21.50;99.90
18876;DHT22;9570;50.854;13.778;2022-07-06T11:51:41;21.40;99.90
18876;DHT22;9570;50.854;13.778;2022-07-06T11:54:12;21.40;99.90
18876;DHT22;9570;50.854;13.778;2022-07-06T11:56:38;21.50;99.90
18876;DHT22;9570;50.854;13.778;2022-07-06T11:59:10;21.50;99.90
18876;DHT22;9570;50.854;13.778;2022-07-06T12:01:35;21.60;99.90
18876;DHT22;9570;50.854;13.778;2022-07-06T12:04:06;21.60;99.90
18876;DHT22;9570;50.854;13.778;2022-07-06T12:06:33;21.70;99.90
18876;DHT22;9570;50.854;13.778;2022-07-06T12:09:00;21.60;99.90
18876;DHT22;9570;50.854;13.778;2022-07-06T12:11:30;21.40;99.90
18876;DHT22;9570;50.854;13.778;2022-07-06T12:13:58;21.30;99.90
18876;DHT22;9570;50.854;13.778;2022-07-06T12:16:35;21.50;99.90
18876;DHT22;9570;50.854;13.778;2022-07-06T12:19:03;21.80;99.90
18876;DHT22;9570;50.854;13.778;2022-07-06T12:21:29;22.10;99.90
18876;DHT22;9570;50.854;13.778;2022-07-06T12:23:55;22.40;99.90
18876;DHT22;9570;50.854;13.778;2022-07-06T12:26:23;22.40;99.90
18876;DHT22;9570;50.854;13.778;2022-07-06T12:29:08;22.30;99.90
18876;DHT22;9570;50.854;13.778;2022-07-06T12:31:52;21.90;99.90
18876;DHT22;9570;50.854;13.778;2022-07-06T12:34:26;21.40;99.90
18876;DHT22;9570;50.854;13.778;2022-07-06T12:36:56;21.40;99.90
18876;DHT22;9570;50.854;13.778;2022-07-06T12:39:29;21.40;99.90
18876;DHT22;9570;50.854;13.778;2022-07-06T12:42:01;21.40;99.90
18876;DHT22;9570;50.854;13.778;2022-07-06T12:44:28;21.20;99.90
18876;DHT22;9570;50.854;13.778;2022-07-06T12:47:03;21.30;99.90
18876;DHT22;9570;50.854;13.778;2022-07-06T12:49:29;21.30;99.90
18876;DHT22;9570;50.854;13.778;2022-07-06T12:52:00;21.40;99.90
18876;DHT22;9570;50.854;13.778;2022-07-06T12:54:31;21.40;99.90
18876;DHT22;9570;50.854;13.778;2022-07-06T12:59:29;21.50;99.90
18876;DHT22;9570;50.854;13.778;2022-07-06T13:01:55;21.40;99.90
18876;DHT22;9570;50.854;13.778;2022-07-06T13:04:28;21.40;99.90
18876;DHT22;9570;50.854;13.778;2022-07-06T13:06:54;21.50;99.90
18876;DHT22;9570;50.854;13.778;2022-07-06T13:09:21;21.60;99.90
18876;DHT22;9570;50.854;13.778;2022-07-06T13:11:47;21.70;99.90
18876;DHT22;9570;50.854;13.778;2022-07-06T13:14:17;21.70;99.90
18876;DHT22;9570;50.854;13.778;2022-07-06T13:16:44;21.60;99.90
18876;DHT22;9570;50.854;13.778;2022-07-06T13:19:10;21.30;99.90
18876;DHT22;9570;50.854;13.778;2022-07-06T13:21:36;21.20;99.90
18876;DHT22;9570;50.854;13.778;2022-07-06T13:24:02;21.10;99.90
18876;DHT22;9570;50.854;13.778;2022-07-06T13:26:28;21.10;99.90
18876;DHT22;9570;50.854;13.778;2022-07-06T13:28:54;21.10;99.90
18876;DHT22;9570;50.854;13.778;2022-07-06T13:31:20;21.40;99.90
18876;DHT22;9570;50.854;13.778;2022-07-06T13:33:45;21.50;99.90
18876;DHT22;9570;50.854;13.778;2022-07-06T13:36:11;21.40;99.90
18876;DHT22;9570;50.854;13.778;2022-07-06T13:38:36;21.40;99.90
18876;DHT22;9570;50.854;13.778;2022-07-06T13:41:02;21.40;99.90
18876;DHT22;9570;50.854;13.778;2022-07-06T13:43:27;21.40;99.90
18876;DHT22;9570;50.854;13.778;2022-07-06T13:46:02;21.30;99.90
18876;DHT22;9570;50.854;13.778;2022-07-06T13:48:28;21.30;99.90
18876;DHT22;9570;50.854;13.778;2022-07-06T13:50:53;21.40;99.90
18876;DHT22;9570;50.854;13.778;2022-07-06T13:53:18;21.50;99.90
18876;DHT22;9570;50.854;13.778;2022-07-06T13:55:44;21.40;99.90
18876;DHT22;9570;50.854;13.778;2022-07-06T13:58:09;21.30;99.90
18876;DHT22;9570;50.854;13.778;2022-07-06T14:00:35;21.30;99.90
18876;DHT22;9570;50.854;13.778;2022-07-06T14:03:01;21.20;99.90
18876;DHT22;9570;50.854;13.778;2022-07-06T14:05:28;21.20;99.90
18876;DHT22;9570;50.854;13.778;2022-07-06T14:07:55;21.20;99.90
18876;DHT22;9570;50.854;13.778;2022-07-06T14:10:20;21.20;99.90
18876;DHT22;9570;50.854;13.778;2022-07-06T14:12:46;21.20;99.90
18876;DHT22;9570;50.854;13.778;2022-07-06T14:15:11;21.40;99.90
18876;DHT22;9570;50.854;13.778;2022-07-06T14:17:37;21.40;99.90
18876;DHT22;9570;50.854;13.778;2022-07-06T14:20:02;21.50;99.90
18876;DHT22;9570;50.854;13.778;2022-07-06T14:22:28;21.50;99.90
18876;DHT22;9570;50.854;13.778;2022-07-06T14:24:53;21.60;99.90
18876;DHT22;9570;50.854;13.778;2022-07-06T14:27:19;21.50;99.90
18876;DHT22;9570;50.854;13.778;2022-07-06T14:29:44;21.40;99.90
18876;DHT22;9570;50.854;13.778;2022-07-06T14:32:10;21.40;99.90
18876;DHT22;9570;50.854;13.778;2022-07-06T14:34:35;21.40;99.90
18876;DHT22;9570;50.854;13.778;2022-07-06T14:37:01;21.40;99.90
18876;DHT22;9570;50.854;13.778;2022-07-06T14:39:26;21.30;99.90
18876;DHT22;9570;50.854;13.778;2022-07-06T14:41:52;21.20;99.90
18876;DHT22;9570;50.854;13.778;2022-07-06T14:44:17;21.30;99.90
18876;DHT22;9570;50.854;13.778;2022-07-06T14:46:42;21.20;99.90
18876;DHT22;9570;50.854;13.778;2022-07-06T14:49:08;21.10;99.90
18876;DHT22;9570;50.854;13.778;2022-07-06T14:51:33;20.90;99.90
18876;DHT22;9570;50.854;13.778;2022-07-06T14:53:59;21.00;99.90
18876;DHT22;9570;50.854;13.778;2022-07-06T14:56:24;21.00;99.90
18876;DHT22;9570;50.854;13.778;2022-07-06T14:58:50;21.20;99.90
18876;DHT22;9570;50.854;13.778;2022-07-06T15:01:15;21.40;99.90
18876;DHT22;9570;50.854;13.778;2022-07-06T15:03:41;21.50;99.90
18876;DHT22;9570;50.854;13.778;2022-07-06T15:06:06;21.50;99.90
18876;DHT22;9570;50.854;13.778;2022-07-06T15:08:32;21.50;99.90
18876;DHT22;9570;50.854;13.778;2022-07-06T15:10:57;21.40;99.90
18876;DHT22;9570;50.854;13.778;2022-07-06T15:13:23;21.40;99.90
18876;DHT22;9570;50.854;13.778;2022-07-06T15:15:48;21.40;99.90
18876;DHT22;9570;50.854;13.778;2022-07-06T15:18:14;21.40;99.90
18876;DHT22;9570;50.854;13.778;2022-07-06T15:20:39;21.50;99.90
18876;DHT22;9570;50.854;13.778;2022-07-06T15:23:05;21.50;99.90
18876;DHT22;9570;50.854;13.778;2022-07-06T15:25:30;21.30;99.90
18876;DHT22;9570;50.854;13.778;2022-07-06T15:27:56;21.10;99.90
18876;DHT22;9570;50.854;13.778;2022-07-06T15:30:22;21.10;99.90
18876;DHT22;9570;50.854;13.778;2022-07-06T15:32:48;21.10;99.90
18876;DHT22;9570;50.854;13.778;2022-07-06T15:35:14;21.10;99.90
18876;DHT22;9570;50.854;13.778;2022-07-06T15:37:39;21.00;99.90
18876;DHT22;9570;50.854;13.778;2022-07-06T15:40:07;20.90;99.90
18876;DHT22;9570;50.854;13.778;2022-07-06T15:42:38;21.00;99.90
18876;DHT22;9570;50.854;13.778;2022-07-06T15:45:04;20.90;99.90